createdAt,value
2022-09-15T00:00:46.535Z,1.04
2022-09-15T00:01:46.765Z,1.04
2022-09-15T00:02:46.927Z,1.04
2022-09-15T00:03:46.938Z,1.04
2022-09-15T00:04:47.076Z,1.04
2022-09-15T00:05:47.294Z,1.04
2022-09-15T00:06:47.399Z,1.04
2022-09-15T00:07:47.509Z,1.04
2022-09-15T00:08:47.638Z,1.04
2022-09-15T00:09:47.805Z,1.04
2022-09-15T00:10:47.949Z,1.04
2022-09-15T00:11:48.106Z,1.04
2022-09-15T00:12:48.254Z,1.04
2022-09-15T00:13:48.360Z,1.04
2022-09-15T00:14:48.511Z,1.04
2022-09-15T00:15:48.599Z,1.04
2022-09-15T00:16:48.829Z,1.04
2022-09-15T00:17:48.911Z,1.04
2022-09-15T00:18:49.020Z,1.04
2022-09-15T00:19:49.166Z,1.04
2022-09-15T00:20:49.321Z,1.04
2022-09-15T00:21:49.473Z,1.04
2022-09-15T00:22:49.636Z,1.04
2022-09-15T00:23:49.783Z,1.04
2022-09-15T00:24:49.878Z,1.04
2022-09-15T00:25:50.029Z,1.04
2022-09-15T00:26:50.129Z,1.04
2022-09-15T00:27:50.285Z,1.04
2022-09-15T00:28:50.577Z,1.04
2022-09-15T00:29:50.586Z,1.04
2022-09-15T00:30:50.735Z,1.04
2022-09-15T00:31:50.844Z,1.04
2022-09-15T00:32:50.988Z,1.04
2022-09-15T00:33:51.156Z,1.04
2022-09-15T00:34:51.294Z,1.04
2022-09-15T00:35:51.395Z,1.04
2022-09-15T00:36:51.565Z,1.04
2022-09-15T00:37:51.704Z,1.04
2022-09-15T00:38:51.861Z,1.04
2022-09-15T00:39:52.116Z,1.04
2022-09-15T00:40:52.154Z,1.04
2022-09-15T00:41:52.308Z,1.04
2022-09-15T00:42:52.457Z,1.04
2022-09-15T00:43:52.788Z,1.04
2022-09-15T00:44:52.718Z,1.04
2022-09-15T00:45:52.904Z,1.04
2022-09-15T00:47:09.626Z,1.04
2022-09-15T00:47:53.077Z,1.04
2022-09-15T00:48:53.228Z,1.04
2022-09-15T00:49:57.046Z,1.04
2022-09-15T00:50:53.483Z,1.04
2022-09-15T00:51:53.623Z,1.04
2022-09-15T00:52:53.777Z,1.04
2022-09-15T00:53:53.884Z,1.04
2022-09-15T00:54:54.042Z,1.04
2022-09-15T00:55:54.125Z,1.04
2022-09-15T00:56:54.286Z,1.04
2022-09-15T00:57:54.423Z,1.04
2022-09-15T00:58:54.582Z,1.04
2022-09-15T00:59:54.744Z,1.04
2022-09-15T01:00:54.915Z,1.04
2022-09-15T01:01:54.997Z,1.04
2022-09-15T01:02:55.042Z,1.04
2022-09-15T01:03:55.163Z,1.04
2022-09-15T01:04:58.311Z,1.04
2022-09-15T01:05:55.449Z,1.04
2022-09-15T01:06:55.605Z,1.04
2022-09-15T01:07:55.759Z,1.04
2022-09-15T01:08:55.936Z,1.04
2022-09-15T01:09:56.057Z,1.04
2022-09-15T01:10:56.202Z,1.04
2022-09-15T01:11:56.364Z,1.04
2022-09-15T01:12:56.474Z,1.04
2022-09-15T01:13:56.623Z,1.04
2022-09-15T01:14:56.727Z,1.04
2022-09-15T01:15:56.861Z,1.04
2022-09-15T01:16:57.057Z,1.04
2022-09-15T01:17:57.080Z,1.04
2022-09-15T01:18:57.228Z,1.04
2022-09-15T01:19:57.369Z,1.04
2022-09-15T01:20:57.538Z,1.04
2022-09-15T01:21:58.934Z,1.04
2022-09-15T01:22:57.828Z,1.04
2022-09-15T01:23:57.945Z,1.04
2022-09-15T01:24:58.086Z,1.04
2022-09-15T01:25:58.242Z,1.04
2022-09-15T01:26:58.399Z,1.04
2022-09-15T01:27:58.531Z,1.04
2022-09-15T01:28:58.636Z,1.04
2022-09-15T01:29:58.799Z,1.04
2022-09-15T01:30:58.942Z,1.04
2022-09-15T01:31:59.160Z,1.04
2022-09-15T01:32:59.256Z,1.04
2022-09-15T01:33:59.350Z,1.04
2022-09-15T01:34:59.506Z,1.04
2022-09-15T01:35:59.615Z,1.04
2022-09-15T01:36:59.758Z,1.04
2022-09-15T01:37:59.908Z,1.04
2022-09-15T01:39:00.083Z,1.04
2022-09-15T01:40:00.317Z,1.04
2022-09-15T01:41:00.320Z,1.04
2022-09-15T01:42:00.469Z,1.04
2022-09-15T01:43:00.629Z,1.04
2022-09-15T01:44:00.775Z,1.04
2022-09-15T01:45:00.965Z,1.04
2022-09-15T01:46:01.074Z,1.04
2022-09-15T01:47:01.185Z,1.04
2022-09-15T01:48:01.293Z,1.04
2022-09-15T01:49:01.433Z,1.04
2022-09-15T01:50:01.579Z,1.04
2022-09-15T01:51:01.745Z,1.04
2022-09-15T01:52:01.890Z,1.04
2022-09-15T01:53:02.044Z,1.04
2022-09-15T01:54:02.201Z,1.04
2022-09-15T01:55:02.345Z,1.04
2022-09-15T01:56:02.515Z,1.04
2022-09-15T01:57:02.604Z,1.04
2022-09-15T01:58:02.745Z,1.04
2022-09-15T01:59:02.898Z,1.04
2022-09-15T02:00:03.051Z,1.04
2022-09-15T02:01:03.318Z,1.04
2022-09-15T02:02:03.367Z,1.04
2022-09-15T02:03:03.460Z,1.04
2022-09-15T02:04:03.617Z,1.04
2022-09-15T02:05:03.717Z,1.04
2022-09-15T02:06:03.819Z,1.04
2022-09-15T02:07:03.976Z,1.04
2022-09-15T02:08:04.074Z,1.04
2022-09-15T02:09:04.258Z,1.04
2022-09-15T02:10:04.431Z,1.04
2022-09-15T02:11:04.465Z,1.04
2022-09-15T02:12:04.617Z,1.04
2022-09-15T02:13:04.771Z,1.04
2022-09-15T02:14:04.931Z,1.04
2022-09-15T02:15:05.032Z,1.04
2022-09-15T02:16:05.258Z,1.04
2022-09-15T02:17:05.273Z,1.04
2022-09-15T02:18:05.381Z,1.04
2022-09-15T02:19:05.488Z,1.04
2022-09-15T02:20:05.645Z,1.04
2022-09-15T02:21:05.782Z,1.04
2022-09-15T02:22:05.939Z,1.04
2022-09-15T02:23:06.096Z,1.04
2022-09-15T02:24:06.243Z,1.04
2022-09-15T02:25:06.399Z,1.04
2022-09-15T02:26:06.488Z,1.04
2022-09-15T02:27:06.645Z,1.04
2022-09-15T02:28:06.755Z,1.04
2022-09-15T02:29:06.850Z,1.04
2022-09-15T02:30:06.997Z,1.04
2022-09-15T02:31:07.200Z,1.04
2022-09-15T02:32:07.667Z,1.04
2022-09-15T02:33:07.465Z,1.04
2022-09-15T02:34:07.613Z,1.04
2022-09-15T02:35:07.721Z,1.04
2022-09-15T02:36:07.865Z,1.04
2022-09-15T02:37:08.019Z,1.04
2022-09-15T02:38:08.167Z,1.04
2022-09-15T02:39:08.324Z,1.04
2022-09-15T02:40:08.516Z,1.04
2022-09-15T02:41:08.618Z,1.04
2022-09-15T02:42:08.784Z,1.04
2022-09-15T02:43:08.877Z,1.04
2022-09-15T02:44:09.010Z,1.04
2022-09-15T02:45:09.150Z,1.04
2022-09-15T02:46:09.361Z,1.04
2022-09-15T02:47:09.428Z,1.04
2022-09-15T02:48:09.582Z,1.04
2022-09-15T02:49:09.684Z,1.04
2022-09-15T02:50:09.806Z,1.04
2022-09-15T02:51:09.947Z,1.04
2022-09-15T02:52:10.048Z,1.04
2022-09-15T02:53:10.198Z,1.04
2022-09-15T02:54:10.303Z,1.04
2022-09-15T02:55:10.451Z,1.04
2022-09-15T02:56:10.547Z,1.04
2022-09-15T02:57:10.717Z,1.04
2022-09-15T02:58:10.853Z,1.04
2022-09-15T02:59:11.021Z,1.04
2022-09-15T03:00:11.171Z,1.04
2022-09-15T03:01:11.452Z,1.04
2022-09-15T03:02:11.514Z,1.04
2022-09-15T03:03:11.566Z,1.04
2022-09-15T03:04:11.733Z,1.04
2022-09-15T03:05:11.880Z,1.04
2022-09-15T03:06:12.022Z,1.04
2022-09-15T03:07:12.177Z,1.04
2022-09-15T03:08:12.333Z,1.04
2022-09-15T03:09:12.437Z,1.04
2022-09-15T03:10:12.575Z,1.04
2022-09-15T03:11:12.728Z,1.04
2022-09-15T03:12:12.886Z,1.04
2022-09-15T03:13:13.033Z,1.04
2022-09-15T03:14:13.152Z,1.04
2022-09-15T03:15:13.295Z,1.04
2022-09-15T03:16:13.425Z,1.04
2022-09-15T03:17:13.574Z,1.04
2022-09-15T03:18:13.705Z,1.04
2022-09-15T03:19:13.846Z,1.04
2022-09-15T03:20:13.950Z,1.04
2022-09-15T03:21:14.104Z,1.04
2022-09-15T03:22:14.247Z,1.04
2022-09-15T03:23:14.404Z,1.04
2022-09-15T03:24:14.575Z,1.04
2022-09-15T03:25:14.717Z,1.04
2022-09-15T03:26:14.856Z,1.04
2022-09-15T03:27:14.970Z,1.04
2022-09-15T03:28:15.118Z,1.04
2022-09-15T03:29:15.268Z,1.04
2022-09-15T03:30:15.417Z,1.04
2022-09-15T03:31:15.614Z,1.04
2022-09-15T03:32:15.660Z,1.04
2022-09-15T03:33:15.773Z,1.04
2022-09-15T03:34:15.962Z,1.04
2022-09-15T03:35:16.178Z,1.04
2022-09-15T03:36:16.212Z,1.04
2022-09-15T03:37:16.342Z,1.04
2022-09-15T03:38:16.477Z,1.04
2022-09-15T03:39:16.584Z,1.04
2022-09-15T03:40:16.779Z,1.04
2022-09-15T03:41:16.881Z,1.04
2022-09-15T03:42:17.050Z,1.04
2022-09-15T03:43:18.758Z,1.04
2022-09-15T03:44:17.289Z,1.04
2022-09-15T03:45:17.397Z,1.04
2022-09-15T03:46:17.571Z,1.04
2022-09-15T03:47:17.642Z,1.04
2022-09-15T03:48:17.791Z,1.04
2022-09-15T03:49:17.952Z,1.04
2022-09-15T03:50:18.113Z,1.04
2022-09-15T03:51:18.254Z,1.04
2022-09-15T03:52:18.410Z,1.04
2022-09-15T03:53:18.551Z,1.04
2022-09-15T03:54:18.712Z,1.04
2022-09-15T03:55:18.861Z,1.04
2022-09-15T03:56:19.028Z,1.04
2022-09-15T03:57:19.111Z,1.04
2022-09-15T03:58:19.268Z,1.04
2022-09-15T03:59:19.373Z,1.04
2022-09-15T04:00:19.538Z,1.04
2022-09-15T04:01:19.742Z,1.04
2022-09-15T04:02:19.824Z,1.04
2022-09-15T04:03:19.929Z,1.04
2022-09-15T04:04:20.079Z,1.04
2022-09-15T04:05:20.225Z,1.04
2022-09-15T04:06:20.384Z,1.04
2022-09-15T04:07:20.530Z,1.04
2022-09-15T04:08:20.704Z,1.04
2022-09-15T04:09:20.853Z,1.04
2022-09-15T04:10:20.976Z,1.04
2022-09-15T04:11:21.139Z,2
2022-09-15T04:12:21.243Z,2
2022-09-15T04:13:23.443Z,2
2022-09-15T04:14:21.544Z,2
2022-09-15T04:15:21.647Z,2
2022-09-15T04:16:21.852Z,3.04
2022-09-15T04:17:21.895Z,3.04
2022-09-15T04:18:22.059Z,4
2022-09-15T04:19:22.201Z,4
2022-09-15T04:20:22.363Z,5.04
2022-09-15T04:21:22.454Z,5.04
2022-09-15T04:22:22.607Z,6
2022-09-15T04:23:22.758Z,7.04
2022-09-15T04:24:22.876Z,7.04
2022-09-15T04:25:23.014Z,8
2022-09-15T04:26:23.187Z,10
2022-09-15T04:27:23.328Z,12
2022-09-15T04:28:23.464Z,14
2022-09-15T04:29:23.628Z,16
2022-09-15T04:30:23.777Z,19.04
2022-09-15T04:31:24.047Z,21.04
2022-09-15T04:32:24.018Z,22
2022-09-15T04:33:24.139Z,23.04
2022-09-15T04:34:24.281Z,26
2022-09-15T04:35:24.439Z,28
2022-09-15T04:36:24.592Z,30
2022-09-15T04:37:24.735Z,33.04
2022-09-15T04:38:24.889Z,36
2022-09-15T04:39:25.033Z,38
2022-09-15T04:40:25.259Z,40
2022-09-15T04:41:25.347Z,43.04
2022-09-15T04:42:25.514Z,45.04
2022-09-15T04:43:25.657Z,47.04
2022-09-15T04:44:25.797Z,50
2022-09-15T04:45:25.906Z,54
2022-09-15T04:46:26.189Z,60
2022-09-15T04:47:26.208Z,63.04
2022-09-15T04:48:26.359Z,67.04
2022-09-15T04:49:26.516Z,69.04
2022-09-15T04:50:26.665Z,71.04
2022-09-15T04:51:26.823Z,79.04
2022-09-15T04:52:26.969Z,84
2022-09-15T04:53:27.117Z,97.04
2022-09-15T04:54:27.222Z,109.04
2022-09-15T04:55:27.315Z,117.04
2022-09-15T04:56:27.475Z,115.04
2022-09-15T04:57:27.624Z,116
2022-09-15T04:58:27.775Z,128
2022-09-15T04:59:27.939Z,144
2022-09-15T05:00:28.105Z,165.12
2022-09-15T05:01:28.329Z,187.04
2022-09-15T05:02:28.387Z,220
2022-09-15T05:03:28.489Z,233.12
2022-09-15T05:04:28.645Z,236
2022-09-15T05:05:28.795Z,256
2022-09-15T05:06:28.939Z,313.12
2022-09-15T05:07:29.098Z,413.12
2022-09-15T05:08:29.246Z,451.2
2022-09-15T05:09:29.392Z,399.04
2022-09-15T05:10:29.491Z,308
2022-09-15T05:11:29.651Z,275.04
2022-09-15T05:12:29.802Z,267.04
2022-09-15T05:13:29.957Z,286.08
2022-09-15T05:14:30.110Z,318.08
2022-09-15T05:15:30.215Z,345.28
2022-09-15T05:16:30.485Z,459.2
2022-09-15T05:17:30.479Z,475.2
2022-09-15T05:18:30.659Z,473.28
2022-09-15T05:19:30.784Z,517.12
2022-09-15T05:20:30.921Z,586.24
2022-09-15T05:21:31.086Z,667.52
2022-09-15T05:22:31.222Z,725.12
2022-09-15T05:23:31.323Z,743.04
2022-09-15T05:24:31.479Z,702.08
2022-09-15T05:25:31.624Z,676.48
2022-09-15T05:26:31.771Z,651.2
2022-09-15T05:27:31.867Z,648
2022-09-15T05:28:32.053Z,647.04
2022-09-15T05:29:32.194Z,640
2022-09-15T05:30:37.948Z,705.28
2022-09-15T05:31:32.479Z,709.12
2022-09-15T05:32:32.588Z,754.56
2022-09-15T05:33:32.747Z,773.12
2022-09-15T05:34:32.878Z,798.08
2022-09-15T05:35:32.976Z,812.16
2022-09-15T05:36:33.096Z,1106.56
2022-09-15T05:37:33.247Z,1252.48
2022-09-15T05:38:33.343Z,1172.48
2022-09-15T05:39:33.515Z,1182.08
2022-09-15T05:40:33.710Z,1427.2
2022-09-15T05:41:33.812Z,1404.16
2022-09-15T05:42:34.098Z,1283.2
2022-09-15T05:43:34.249Z,1275.52
2022-09-15T05:44:34.374Z,1346.56
2022-09-15T05:45:34.513Z,1415.68
2022-09-15T05:46:34.717Z,1566.72
2022-09-15T05:47:34.760Z,1442.56
2022-09-15T05:48:34.919Z,1335.04
2022-09-15T05:49:35.072Z,1568
2022-09-15T05:50:35.224Z,1812.48
2022-09-15T05:51:35.367Z,2033.92
2022-09-15T05:52:35.520Z,2128.64
2022-09-15T05:53:35.694Z,2156.8
2022-09-15T05:54:35.839Z,2160.64
2022-09-15T05:55:35.976Z,2200.32
2022-09-15T05:56:36.138Z,2216.96
2022-09-15T05:57:36.284Z,2174.72
2022-09-15T05:58:36.437Z,2151.68
2022-09-15T05:59:36.588Z,2103.04
2022-09-15T06:00:36.742Z,2113.28
2022-09-15T06:01:36.900Z,2182.4
2022-09-15T06:02:37.018Z,2234.88
2022-09-15T06:03:37.042Z,2257.92
2022-09-15T06:04:37.197Z,2236.16
2022-09-15T06:05:37.304Z,2128.64
2022-09-15T06:06:37.476Z,1998.08
2022-09-15T06:07:37.614Z,2174.72
2022-09-15T06:08:38.164Z,2314.24
2022-09-15T06:09:37.908Z,2382.08
2022-09-15T06:10:38.055Z,2490.88
2022-09-15T06:11:38.153Z,2695.68
2022-09-15T06:12:38.319Z,3028.48
2022-09-15T06:13:38.464Z,3141.12
2022-09-15T06:14:38.605Z,3069.44
2022-09-15T06:15:38.769Z,3036.16
2022-09-15T06:16:39.060Z,3235.84
2022-09-15T06:17:39.073Z,3374.08
2022-09-15T06:18:39.231Z,2972.16
2022-09-15T06:19:39.375Z,2905.6
2022-09-15T06:20:39.528Z,3304.96
2022-09-15T06:21:39.627Z,3499.52
2022-09-15T06:22:39.792Z,3266.56
2022-09-15T06:23:39.943Z,2721.28
2022-09-15T06:24:40.042Z,2634.24
2022-09-15T06:25:40.153Z,2670.08
2022-09-15T06:26:40.284Z,2585.6
2022-09-15T06:27:40.409Z,2586.88
2022-09-15T06:28:40.546Z,2882.56
2022-09-15T06:29:40.700Z,3584
2022-09-15T06:30:40.785Z,4167.68
2022-09-15T06:31:40.979Z,3765.76
2022-09-15T06:32:43.247Z,3233.28
2022-09-15T06:33:41.223Z,3374.08
2022-09-15T06:34:41.344Z,3292.16
2022-09-15T06:35:41.505Z,2867.2
2022-09-15T06:36:41.596Z,3038.72
2022-09-15T06:37:41.753Z,3333.12
2022-09-15T06:38:41.922Z,3491.84
2022-09-15T06:39:42.050Z,3717.12
2022-09-15T06:40:42.217Z,3860.48
2022-09-15T06:42:01.086Z,4080.64
2022-09-15T06:42:42.517Z,4328.96
2022-09-15T06:43:42.725Z,4352
2022-09-15T06:44:42.825Z,4416
2022-09-15T06:45:43.019Z,4431.36
2022-09-15T06:46:43.128Z,4623.36
2022-09-15T06:47:43.280Z,4876.8
2022-09-15T06:48:46.310Z,4961.28
2022-09-15T06:49:43.581Z,4672
2022-09-15T06:50:43.738Z,4584.96
2022-09-15T06:51:43.843Z,4794.88
2022-09-15T06:52:43.977Z,4769.28
2022-09-15T06:53:44.168Z,5035.52
2022-09-15T06:54:44.240Z,5565.44
2022-09-15T06:55:44.390Z,5570.56
2022-09-15T06:56:44.541Z,5073.92
2022-09-15T06:57:44.698Z,4695.04
2022-09-15T06:58:44.896Z,4480
2022-09-15T06:59:44.946Z,4536.32
2022-09-15T07:00:45.102Z,4864
2022-09-15T07:01:45.201Z,5143.04
2022-09-15T07:02:45.391Z,5401.6
2022-09-15T07:03:45.526Z,5396.48
2022-09-15T07:04:45.603Z,4966.4
2022-09-15T07:05:45.762Z,4490.24
2022-09-15T07:06:45.922Z,4021.76
2022-09-15T07:07:46.060Z,3722.24
2022-09-15T07:08:46.212Z,3681.28
2022-09-15T07:09:48.999Z,3950.08
2022-09-15T07:10:46.520Z,4037.12
2022-09-15T07:11:46.678Z,4134.4
2022-09-15T07:12:46.834Z,4288
2022-09-15T07:13:46.978Z,4382.72
2022-09-15T07:14:47.125Z,4160
2022-09-15T07:15:47.272Z,3924.48
2022-09-15T07:16:47.491Z,3875.84
2022-09-15T07:17:47.590Z,3998.72
2022-09-15T07:18:47.745Z,4160
2022-09-15T07:19:47.890Z,4712.96
2022-09-15T07:20:48.001Z,5734.4
2022-09-15T07:21:48.136Z,6359.04
2022-09-15T07:22:48.289Z,7121.92
2022-09-15T07:23:48.442Z,7720.96
2022-09-15T07:24:48.591Z,7311.36
2022-09-15T07:25:48.699Z,6144
2022-09-15T07:26:48.847Z,5109.76
2022-09-15T07:27:49.013Z,5708.8
2022-09-15T07:28:49.154Z,7475.2
2022-09-15T07:29:49.303Z,10245.12
2022-09-15T07:30:49.493Z,11499.52
2022-09-15T07:31:49.603Z,11806.72
2022-09-15T07:32:49.710Z,11438.08
2022-09-15T07:33:49.799Z,11479.04
2022-09-15T07:34:49.962Z,11980.8
2022-09-15T07:35:50.118Z,12595.2
2022-09-15T07:36:50.217Z,12441.6
2022-09-15T07:37:50.363Z,12953.6
2022-09-15T07:38:50.515Z,14080
2022-09-15T07:39:50.720Z,13301.76
2022-09-15T07:40:50.782Z,13240.319
2022-09-15T07:41:50.875Z,13455.359
2022-09-15T07:42:51.193Z,13219.84
2022-09-15T07:43:51.335Z,12349.439
2022-09-15T07:44:51.476Z,12134.399
2022-09-15T07:45:51.675Z,12994.56
2022-09-15T07:46:51.745Z,13475.84
2022-09-15T07:47:51.950Z,12431.359
2022-09-15T07:48:52.108Z,11028.479
2022-09-15T07:49:52.104Z,10608.64
2022-09-15T07:50:52.234Z,10449.92
2022-09-15T07:51:52.344Z,9630.72
2022-09-15T07:52:52.442Z,8069.12
2022-09-15T07:53:52.587Z,7546.88
2022-09-15T07:54:52.756Z,7802.88
2022-09-15T07:55:52.894Z,8110.08
2022-09-15T07:56:53.060Z,8391.68
2022-09-15T07:57:53.153Z,7946.24
2022-09-15T07:58:53.280Z,6727.68
2022-09-15T07:59:53.416Z,6261.76
2022-09-15T08:00:53.596Z,6630.4
2022-09-15T08:01:53.730Z,7147.52
2022-09-15T08:02:53.759Z,8192
2022-09-15T08:03:54.072Z,8437.76
2022-09-15T08:04:54.020Z,9011.2
2022-09-15T08:05:54.124Z,10895.359
2022-09-15T08:06:54.278Z,11704.319
2022-09-15T08:07:54.423Z,11274.24
2022-09-15T08:08:59.929Z,9963.52
2022-09-15T08:09:54.726Z,9405.439
2022-09-15T08:10:54.837Z,8376.32
2022-09-15T08:11:55.019Z,8038.4
2022-09-15T08:12:55.127Z,8970.24
2022-09-15T08:13:55.285Z,10373.12
2022-09-15T08:14:55.370Z,12113.92
2022-09-15T08:15:55.719Z,12851.2
2022-09-15T08:16:55.776Z,12933.12
2022-09-15T08:17:55.873Z,14397.439
2022-09-15T08:18:56.073Z,16424.96
2022-09-15T08:19:56.193Z,18442.24
2022-09-15T08:20:56.345Z,19609.6
2022-09-15T08:21:56.440Z,19118.08
2022-09-15T08:22:56.549Z,18442.24
2022-09-15T08:23:56.735Z,18606.08
2022-09-15T08:24:56.813Z,18800.64
2022-09-15T08:25:56.917Z,20121.6
2022-09-15T08:26:56.999Z,20633.6
2022-09-15T08:27:57.145Z,17387.52
2022-09-15T08:28:57.322Z,14274.56
2022-09-15T08:29:57.466Z,12656.64
2022-09-15T08:30:57.675Z,10926.08
2022-09-15T08:31:57.723Z,9384.96
2022-09-15T08:32:57.867Z,8340.48
2022-09-15T08:33:57.982Z,7751.68
2022-09-15T08:34:58.116Z,7480.32
2022-09-15T08:35:58.279Z,7065.6
2022-09-15T08:36:58.424Z,6860.8
2022-09-15T08:37:58.582Z,6794.24
2022-09-15T08:38:58.727Z,7055.36
2022-09-15T08:39:58.976Z,7756.8
2022-09-15T08:40:59.027Z,8448
2022-09-15T08:41:59.184Z,9267.2
2022-09-15T08:42:59.337Z,9728
2022-09-15T08:43:59.486Z,10178.56
2022-09-15T08:44:59.697Z,10455.04
2022-09-15T08:45:59.875Z,10378.24
2022-09-15T08:46:59.943Z,10327.04
2022-09-15T08:48:00.080Z,9687.04
2022-09-15T08:49:02.856Z,9082.88
2022-09-15T08:50:00.342Z,8750.08
2022-09-15T08:51:00.444Z,9277.439
2022-09-15T08:52:00.585Z,11192.319
2022-09-15T08:53:00.740Z,12840.96
2022-09-15T08:54:00.839Z,16814.08
2022-09-15T08:55:01.027Z,18370.56
2022-09-15T08:56:01.167Z,18452.48
2022-09-15T08:57:01.317Z,17838.08
2022-09-15T08:58:01.465Z,16875.52
2022-09-15T08:59:01.612Z,17817.6
2022-09-15T09:00:01.767Z,22343.68
2022-09-15T09:01:01.919Z,23695.36
2022-09-15T09:02:02.097Z,24125.44
2022-09-15T09:03:02.320Z,24616.96
2022-09-15T09:04:02.324Z,24862.72
2022-09-15T09:05:02.483Z,23572.48
2022-09-15T09:06:02.615Z,20101.12
2022-09-15T09:07:02.723Z,18176
2022-09-15T09:08:02.831Z,17510.4
2022-09-15T09:09:02.981Z,18319.36
2022-09-15T09:10:03.137Z,20101.12
2022-09-15T09:11:03.285Z,22261.76
2022-09-15T09:12:03.429Z,24944.64
2022-09-15T09:13:03.536Z,23080.96
2022-09-15T09:14:03.687Z,18647.04
2022-09-15T09:15:03.828Z,16179.199
2022-09-15T09:16:04.055Z,13701.12
2022-09-15T09:17:04.144Z,12851.2
2022-09-15T09:18:04.290Z,12451.84
2022-09-15T09:19:04.468Z,12247.04
2022-09-15T09:20:04.584Z,12503.04
2022-09-15T09:21:04.770Z,13721.6
2022-09-15T09:22:04.848Z,14673.92
2022-09-15T09:23:05.013Z,14807.04
2022-09-15T09:24:05.109Z,14428.16
2022-09-15T09:25:16.201Z,13475.84
2022-09-15T09:26:08.675Z,12933.12
2022-09-15T09:27:05.570Z,11878.399
2022-09-15T09:28:05.677Z,11356.16
2022-09-15T09:29:05.809Z,12052.479
2022-09-15T09:30:05.969Z,12584.96
2022-09-15T09:31:06.179Z,14233.6
2022-09-15T09:32:06.217Z,14039.04
2022-09-15T09:33:06.329Z,12687.359
2022-09-15T09:34:06.475Z,10004.479
2022-09-15T09:35:06.625Z,9077.76
2022-09-15T09:36:06.784Z,9451.52
2022-09-15T09:37:06.929Z,10618.88
2022-09-15T09:38:07.081Z,11499.52
2022-09-15T09:39:07.241Z,11581.439
2022-09-15T09:40:07.465Z,10199.04
2022-09-15T09:41:07.541Z,8089.6
2022-09-15T09:42:07.697Z,6051.84
2022-09-15T09:43:07.843Z,5570.56
2022-09-15T09:44:08.044Z,5555.2
2022-09-15T09:45:08.192Z,5304.32
2022-09-15T09:46:08.336Z,5063.68
2022-09-15T09:47:08.443Z,5122.56
2022-09-15T09:48:08.558Z,5365.76
2022-09-15T09:49:08.707Z,5811.2
2022-09-15T09:50:08.863Z,6082.56
2022-09-15T09:51:08.967Z,6471.68
2022-09-15T09:52:09.111Z,7521.28
2022-09-15T09:53:09.207Z,8663.04
2022-09-15T09:54:09.364Z,9364.479
2022-09-15T09:55:09.518Z,9661.439
2022-09-15T09:56:09.681Z,9523.2
2022-09-15T09:57:09.812Z,9123.84
2022-09-15T09:58:09.976Z,8954.88
2022-09-15T09:59:10.127Z,8862.72
2022-09-15T10:00:10.278Z,8919.04
2022-09-15T10:01:10.571Z,9236.479
2022-09-15T10:02:10.528Z,9016.319
2022-09-15T10:03:10.682Z,8919.04
2022-09-15T10:04:10.857Z,9093.12
2022-09-15T10:05:11.052Z,9579.52
2022-09-15T10:06:11.089Z,9973.76
2022-09-15T10:07:11.238Z,10332.16
2022-09-15T10:08:11.388Z,10270.72
2022-09-15T10:09:11.544Z,10055.68
2022-09-15T10:10:11.690Z,10142.72
2022-09-15T10:11:11.853Z,10316.8
2022-09-15T10:12:12.000Z,10332.16
2022-09-15T10:13:12.153Z,9728
2022-09-15T10:14:12.256Z,8832
2022-09-15T10:15:12.403Z,8560.64
2022-09-15T10:16:12.598Z,8565.76
2022-09-15T10:17:12.657Z,8540.16
2022-09-15T10:18:12.804Z,7946.24
2022-09-15T10:19:12.964Z,7700.48
2022-09-15T10:20:13.176Z,7772.16
2022-09-15T10:21:13.264Z,7848.96
2022-09-15T10:22:13.369Z,8084.48
2022-09-15T10:23:13.525Z,8657.92
2022-09-15T10:24:17.550Z,8724.479
2022-09-15T10:25:13.777Z,8550.399
2022-09-15T10:26:13.956Z,8673.28
2022-09-15T10:27:14.073Z,9461.76
2022-09-15T10:28:14.239Z,9835.52
2022-09-15T10:29:14.340Z,10076.16
2022-09-15T10:30:14.490Z,10071.04
2022-09-15T10:31:14.672Z,9896.96
2022-09-15T10:32:14.853Z,9569.28
2022-09-15T10:33:14.937Z,9134.08
2022-09-15T10:34:15.046Z,8647.68
2022-09-15T10:35:15.220Z,8432.64
2022-09-15T10:36:15.334Z,8099.84
2022-09-15T10:37:15.499Z,7649.28
2022-09-15T10:38:15.637Z,7331.84
2022-09-15T10:39:15.808Z,7367.68
2022-09-15T10:40:16.075Z,7342.08
2022-09-15T10:41:16.068Z,7592.96
2022-09-15T10:42:16.200Z,8509.439
2022-09-15T10:43:16.354Z,8632.319
2022-09-15T10:44:16.511Z,8591.359
2022-09-15T10:45:16.709Z,8847.359
2022-09-15T10:46:16.903Z,9774.08
2022-09-15T10:47:16.924Z,10741.76
2022-09-15T10:48:17.060Z,11735.04
2022-09-15T10:49:17.216Z,12062.72
2022-09-15T10:50:17.373Z,12503.04
2022-09-15T10:51:17.511Z,12441.6
2022-09-15T10:52:17.667Z,12462.08
2022-09-15T10:53:17.821Z,12595.2
2022-09-15T10:54:17.967Z,14100.479
2022-09-15T10:55:24.768Z,14622.72
2022-09-15T10:56:18.288Z,15134.72
2022-09-15T10:57:18.438Z,15595.52
2022-09-15T10:58:18.540Z,16373.76
2022-09-15T10:59:18.631Z,17008.64
2022-09-15T11:00:18.792Z,18206.72
2022-09-15T11:01:18.970Z,19271.68
2022-09-15T11:02:19.191Z,20602.88
2022-09-15T11:03:19.192Z,22138.88
2022-09-15T11:04:19.288Z,24760.32
2022-09-15T11:05:20.589Z,27545.6
2022-09-15T11:06:19.600Z,32174.08
2022-09-15T11:07:19.748Z,36290.56
2022-09-15T11:08:19.858Z,42557.44
2022-09-15T11:09:19.950Z,54067.2
2022-09-15T11:10:20.107Z,54435.84
2022-09-15T11:11:20.247Z,46489.6
2022-09-15T11:12:20.455Z,44482.56
2022-09-15T11:13:20.558Z,41922.56
2022-09-15T11:14:20.708Z,46366.72
2022-09-15T11:15:20.868Z,45875.2
2022-09-15T11:16:21.050Z,45506.56
2022-09-15T11:17:21.115Z,39157.76
2022-09-15T11:18:21.281Z,36024.32
2022-09-15T11:19:21.431Z,36085.76
2022-09-15T11:20:21.574Z,41656.32
2022-09-15T11:21:21.685Z,44974.08
2022-09-15T11:22:21.828Z,48906.24
2022-09-15T11:23:21.989Z,45506.56
2022-09-15T11:24:22.095Z,40079.36
2022-09-15T11:25:22.233Z,36802.56
2022-09-15T11:26:22.393Z,37498.88
2022-09-15T11:27:22.572Z,36270.08
2022-09-15T11:28:22.696Z,36249.6
2022-09-15T11:29:22.837Z,35287.04
2022-09-15T11:30:22.989Z,29798.4
2022-09-15T11:31:23.182Z,27402.24
2022-09-15T11:32:23.235Z,25251.84
2022-09-15T11:33:23.401Z,26890.24
2022-09-15T11:34:23.544Z,31477.76
2022-09-15T11:35:23.726Z,31088.64
2022-09-15T11:36:23.844Z,37826.56
2022-09-15T11:37:23.996Z,38420.48
2022-09-15T11:38:24.171Z,41799.68
2022-09-15T11:39:24.304Z,41881.6
2022-09-15T11:40:24.449Z,32194.56
2022-09-15T11:41:24.555Z,29265.92
2022-09-15T11:42:24.703Z,35143.68
2022-09-15T11:43:24.867Z,32542.72
2022-09-15T11:44:25.021Z,34652.16
2022-09-15T11:45:25.176Z,39444.48
2022-09-15T11:46:25.337Z,40570.88
2022-09-15T11:47:25.413Z,39608.32
2022-09-15T11:48:25.569Z,58900.48
2022-09-15T11:49:25.728Z,34140.16
2022-09-15T11:50:25.876Z,38830.08
2022-09-15T11:51:25.983Z,26685.44
2022-09-15T11:52:26.078Z,20797.44
2022-09-15T11:53:26.228Z,17991.68
2022-09-15T11:54:28.196Z,17991.68
2022-09-15T11:55:26.552Z,14612.479
2022-09-15T11:56:26.683Z,12902.399
2022-09-15T11:57:26.801Z,14694.399
2022-09-15T11:58:26.937Z,18534.4
2022-09-15T11:59:27.071Z,21319.68
2022-09-15T12:00:27.195Z,22978.56
2022-09-15T12:01:27.376Z,20643.84
2022-09-15T12:02:27.547Z,21954.56
2022-09-15T12:03:27.621Z,23961.6
2022-09-15T12:04:27.755Z,24678.4
2022-09-15T12:05:27.887Z,23654.4
2022-09-15T12:06:28.020Z,23961.6
2022-09-15T12:07:28.151Z,26316.8
2022-09-15T12:08:28.320Z,28753.92
2022-09-15T12:09:28.469Z,28590.08
2022-09-15T12:10:28.560Z,31948.8
2022-09-15T12:11:28.713Z,31907.84
2022-09-15T12:12:29.395Z,36966.4
2022-09-15T12:13:29.034Z,34672.64
2022-09-15T12:14:29.202Z,35676.16
2022-09-15T12:15:29.362Z,41533.44
2022-09-15T12:16:29.465Z,40427.52
2022-09-15T12:17:29.626Z,39116.8
2022-09-15T12:18:39.170Z,33464.32
2022-09-15T12:19:29.839Z,37212.16
2022-09-15T12:20:29.985Z,29327.36
2022-09-15T12:21:30.125Z,43991.04
2022-09-15T12:22:30.287Z,42557.44
2022-09-15T12:23:30.439Z,35635.2
2022-09-15T12:24:30.545Z,66396.16
2022-09-15T12:25:30.653Z,46284.8
2022-09-15T12:26:30.748Z,52633.6
2022-09-15T12:27:30.909Z,52060.16
2022-09-15T12:29:32.086Z,37519.36
2022-09-15T12:30:31.242Z,60866.56
2022-09-15T12:31:31.473Z,37171.2
2022-09-15T12:32:31.575Z,40243.2
2022-09-15T12:33:31.764Z,35758.08
2022-09-15T12:34:31.867Z,35430.4
2022-09-15T12:35:31.952Z,34242.56